• Join FlightAware (Why Join?)
  • Login
  • US Flag 
11:00AM EDT


 

Airport Tracker/Info


-or-


 

Live Flight TrackerFlight Track Log ✈ FLG4262 ✈ 16-Sep-2013 ✈ KBGM - KDTW

Flight Track Log - Related Links

Times and Time Zones

All times are in EDT time to prevent confusion due to time zone crossing. See the FLG4262 flight status page for this flight to view local times or setup timezone preferences in your user account.

Time Position Orientation Groundspeed Altitude Reporting Facility
EDT Latitude Longitude Course Direction KTS MPH feet Rate Location/Type
05:51PM 42.2714 -76.1350 289° West 213 245 6,600  Level Cleveland Center
05:52PM 42.2975 -76.2269 291° West 252 290 9,300 2,340 Climbing Cleveland Center
05:53PM 42.3239 -76.3236 290° West 271 312 11,500 2,220 Climbing Cleveland Center
05:54PM 42.3597 -76.4533 291° West 317 365 14,000 1,980 Climbing Cleveland Center
05:55PM 42.2309 -76.7462 289° West  Level Estimated
05:55PM 42.3908 -76.5694 290° West 327 376 15,700  Level Cleveland Center
05:56PM 42.4250 -76.6950 290° West 352 405 17,200 1,260 Climbing Cleveland Center
05:57PM 42.4586 -76.8214 290° West 357 411 18,400 1,200 Climbing Cleveland Center
05:58PM 42.5006 -76.9792 290° West 370 426 19,800 1,140 Climbing Cleveland Center
05:59PM 42.5358 -77.1139 290° West 379 436 20,800 960 Climbing Cleveland Center
06:00PM 42.5728 -77.2525 290° West 389 448 21,800 960 Climbing Cleveland Center
06:01PM 42.6083 -77.3897 289° West 388 447 22,800 960 Climbing Cleveland Center
06:02PM 42.6175 -77.5517 274° West 398 458 23,900 960 Climbing Cleveland Center
06:03PM 42.6233 -77.6994 273° West 396 456 24,900 960 Climbing Cleveland Center
06:04PM 42.6297 -77.8508 273° West 396 456 25,900 480 Climbing Cleveland Center
06:05PM 42.6358 -78.0019 273° West 399 459 26,000  Climbing Cleveland Center
06:06PM 42.6422 -78.1933 273° West 416 479 26,000  Level Cleveland Center
06:07PM 42.6481 -78.3578 273° West 429 494 26,000  Level Cleveland Center
06:09PM 42.6542 -78.5228 273° West 434 499 26,000  Level Cleveland Center
06:10PM 42.6594 -78.6903 273° West 443 510 26,000  Level Cleveland Center
06:11PM 42.6639 -78.8561 272° West 441 507 26,000  Level Cleveland Center
06:12PM 42.6692 -79.0206 273° West 441 507 26,000  Level Cleveland Center
06:13PM 42.6744 -79.2178 272° West 437 503 26,000  Level Cleveland Center
06:14PM 42.6794 -79.3839 272° West 440 506 26,000  Level Cleveland Center
06:15PM 42.6833 -79.5486 272° West 440 506 26,000  Level Cleveland Center
06:16PM 42.6869 -79.7144 272° West 440 506 26,000  Level Cleveland Center
06:17PM 42.6906 -79.8808 272° West 441 507 26,000  Level Cleveland Center
06:18PM 42.6919 -80.0603 271° West 441 507 26,000  Level Cleveland Center
06:19PM 42.6947 -80.2283 271° West 442 509 26,000  Level Cleveland Center
06:20PM 42.6981 -80.3961 272° West 443 510 26,000  Level Cleveland Center
06:21PM 42.7014 -80.5908 271° West 440 506 26,000 -120 Level Cleveland Center
06:22PM 42.7039 -80.7631 271° West 451 519 25,800 -780 Descending Cleveland Center
06:23PM 42.7011 -80.9322 269° West 448 516 24,400 -900 Descending Cleveland Center
06:24PM 42.6814 -81.0997 261° West 447 514 24,000 -240 Descending Cleveland Center
06:25PM 42.6625 -81.2678 261° West 447 514 24,000 -540 Level Cleveland Center
06:26PM 42.6428 -81.4367 261° West 450 518 22,900 -1,440 Descending Cleveland Center
06:27PM 42.6233 -81.6031 261° West 446 513 21,100 -1,860 Descending Cleveland Center
06:28PM 42.6025 -81.7833 261° West 416 479 19,100 -1,560 Descending Cleveland Center
06:29PM 42.5844 -81.9328 261° West 413 475 17,900 -1,440 Descending Cleveland Center
06:30PM 42.5658 -82.0861 261° West 413 475 16,200 -1,860 Descending Cleveland Center
06:31PM 42.5564 -82.1764 262° West 405 466 15,100 -1,680 Descending Cleveland Center
06:31PM 42.5478 -82.2314 258° West 400 460 14,500 -1,680 Descending Cleveland Center
06:32PM 42.5342 -82.3489 261° West 379 436 13,100 -1,680 Descending Cleveland Center
06:32PM 42.5294 -82.3714 254° West 385 443 12,800 -1,020 Descending Cleveland Center
06:33PM 42.5158 -82.4939 261° West 364 419 12,000 -780 Descending Cleveland Center
06:33PM 42.5094 -82.5325 257° West 367 422 12,000 60 Level Cleveland Center
06:34PM 42.4847 -82.6086 246° West 352 405 12,100  Climbing Cleveland Center
06:34PM 42.4681 -82.6544 244° Southwest 359 413 12,000 -120 Descending Cleveland Center
06:35PM 42.4394 -82.7414 246° West 363 418 12,000  Level Cleveland Center
06:35PM 42.4247 -82.7772 241° Southwest 361 415 12,000  Level Cleveland Center
06:36PM 42.3950 -82.8653 245° Southwest 366 421 12,000  Level Cleveland Center
06:36PM 42.3800 -82.9000 240° Southwest 364 419 12,000  Level Cleveland Center
06:37PM 42.3500 -82.9892 246° West 368 423 12,000  Level Cleveland Center
06:37PM 42.3353 -83.0250 241° Southwest 368 423 12,000  Level Cleveland Center
06:38PM 42.3056 -83.1103 245° Southwest 339 390 12,000  Level Cleveland Center
06:39PM 42.2942 -83.1375 241° Southwest 340 391 12,000  Level Cleveland Center
06:39PM 42.2619 -83.1861 228° Southwest 259 298 12,000 -300 Level Cleveland Center
06:40PM 42.2267 -83.2183 214° Southwest 266 306 11,700 -1,020 Descending Cleveland Center
06:40PM 42.1922 -83.2497 214° Southwest 269 310 10,900 -1,080 Descending Cleveland Center
06:41PM 42.1717 -83.2633 206° Southwest 264 304 10,600 -1,020 Descending Cleveland Center
06:41PM 42.1278 -83.2942 208° Southwest 230 265 9,800 -1,200 Descending Cleveland Center
06:42PM 42.1031 -83.3058 199° South 232 267 9,400 -1,020 Descending Cleveland Center
06:42PM 42.0750 -83.3261 208° Southwest 220 253 8,900 -1,020 Descending Cleveland Center
06:43PM 42.0456 -83.3394 199° South 224 258 8,400 -1,200 Descending Cleveland Center
06:43PM 42.0161 -83.3572 204° Southwest 224 258 7,700 -1,560 Descending Cleveland Center
06:44PM 41.9889 -83.3722 202° Southwest 221 254 6,800 -1,920 Descending Cleveland Center
06:44PM 41.9631 -83.3919 210° Southwest 218 251 5,800 -1,860 Descending Cleveland Center
06:45PM 41.9583 -83.4261 259° West 221 254 4,900 -1,680 Descending Cleveland Center
06:45PM 41.9806 -83.4617 310° West 192 221 4,100 -1,080 Descending Cleveland Center
06:46PM 41.9986 -83.4569 11° North 197 227 3,800 -600 Descending Cleveland Center
06:46PM 42.0336 -83.4553 North 190 219 3,500 -600 Descending Cleveland Center
06:47PM 42.0603 -83.4489 10° North 189 217 3,200 -540 Descending Cleveland Center
06:47PM 42.0792 -83.4364 26° Northeast 168 193 3,000 -300 Descending Cleveland Center
06:48PM 42.1006 -83.4206 29° Northeast 176 203 2,900 -540 Descending Cleveland Center
06:48PM 42.1211 -83.4086 23° Northeast 158 182 2,500 -900 Descending Cleveland Center
06:49PM 42.1383 -83.3925 35° Northeast 164 189 2,000 -900 Descending Cleveland Center
06:49PM 42.1522 -83.3850 22° Northeast 128 147 1,700 -720 Descending Cleveland Center
06:50PM 42.1689 -83.3697 34° Northeast 144 166 1,300 -720 Descending Cleveland Center
06:50PM 42.1836 -83.3611 23° Northeast 124 143 1,000 -480 Descending Cleveland Center
06:51PM 42.2017 -83.3458 32° Northeast 133 153 800 -300 Descending Cleveland Center